Avalon — T8A2542 — position and weather

sailwx.info

Track history (hours):
 
Tides and Currents Weather Stations Pressure Air Temp Water Temp Dewpoint Dewpoint Depression Visibility Wind Speed Wind Dir Waves Ship Positions

Avalon

Last reported at 2018-Jul-10 17:01 UTC. Time now 2018-Aug-15 02:58 UTC.
Position N 39°57' E 026°00'.
Warning: this ship's position is 35 days out of date.

Length 109 m; draft 2.4 m.

Type: Cargo ship. MMSI: 511460000.

Date/timePositionNaut miles runAvg speedWind from/ knotsBaromVisibWave heightAir tempDewpointWater temp
2018-Jul-10 17:01N 39°57' E 026°00'0 6.4
2018-Jul-10 16:58N 39°57' E 025°60'3 6.5
2018-Jul-10 16:30N 39°55' E 025°57'3 6.7
2018-Jul-10 16:00N 39°52' E 025°55'169 7.0
2018-Jul-09 15:57N 37°37' E 023°45'3 7.2
2018-Jul-09 15:30N 37°40' E 023°43'4 7.2
2018-Jul-09 15:00N 37°43' E 023°41'4 7.3
2018-Jul-09 14:30N 37°46' E 023°38'4 7.3
2018-Jul-09 14:00N 37°48' E 023°35'4 7.4
2018-Jul-09 13:30N 37°50' E 023°31'4 7.7
2018-Jul-09 13:00N 37°51' E 023°26'4 8.0
2018-Jul-09 12:30N 37°51' E 023°21'4 7.9
2018-Jul-09 12:00N 37°52' E 023°16'4 7.9
2018-Jul-09 11:30N 37°53' E 023°11'4 7.7
2018-Jul-09 11:00N 37°53' E 023°07'4 7.3
2018-Jul-09 10:30N 37°54' E 023°02'4 5.6
2018-Jul-09 09:47N 37°57' E 022°58'2 6.1
2018-Jul-09 09:30N 37°58' E 022°56'2 4.5
2018-Jul-09 09:00N 37°59' E 022°54'4 7.9
2018-Jul-09 08:30N 38°01' E 022°50'4 7.8
2018-Jul-09 08:00N 38°03' E 022°46'4 7.3
2018-Jul-09 07:30N 38°05' E 022°42'  
2018-Jul-06 00:50N 44°15' E 013°10'3 7.9
2018-Jul-06 00:30N 44°18' E 013°09'4 8.0
2018-Jul-06 00:00N 44°22' E 013°08'4 8.0
2018-Jul-05 23:30N 44°25' E 013°06'4 8.2
2018-Jul-05 22:59N 44°30' E 013°04'4 8.2
2018-Jul-05 22:30N 44°33' E 013°03'4 8.3
2018-Jul-05 22:00N 44°37' E 013°01'4 8.1
2018-Jul-05 21:30N 44°41' E 012°58'4 8.1
2018-Jul-05 21:00N 44°45' E 012°56'4 7.6
2018-Jul-05 20:30N 44°48' E 012°54'4 7.3
2018-Jul-05 20:00N 44°52' E 012°52'4 7.5
2018-Jul-05 19:30N 44°55' E 012°50'4 7.7
2018-Jul-05 19:00N 44°58' E 012°47'4 7.5
2018-Jul-05 18:30N 45°02' E 012°44'4 7.3
2018-Jul-05 17:59N 45°05' E 012°42'3 7.0
2018-Jul-05 17:30N 45°07' E 012°39'3 6.7
2018-Jul-05 17:00N 45°10' E 012°35'4 7.4
2018-Jul-05 16:28N 45°12' E 012°31'3 7.0
2018-Jul-05 16:00N 45°15' E 012°29'4 7.6
2018-Jul-05 15:30N 45°18' E 012°25'4 7.0
2018-Jul-05 15:00N 45°20' E 012°21'4 7.4
2018-Jul-05 14:26N 45°21' E 012°16'6 6.6
2018-Jul-05 13:30N 45°27' E 012°16'1 1.6
2018-Jul-05 12:45N 45°28' E 012°14'0 0.0
2018-Jul-05 12:27N 45°28' E 012°14'0 0.0
2018-Jul-05 10:51N 45°28' E 012°14'0 0.0
2018-Jul-05 10:30N 45°28' E 012°14'0 0.0
2018-Jul-05 09:57N 45°28' E 012°14'0 0.0
2018-Jul-05 09:24N 45°28' E 012°14'0 0.0
2018-Jul-05 08:51N 45°28' E 012°14'0 0.0
2018-Jul-05 08:27N 45°28' E 012°14'0 0.0
2018-Jul-05 07:57N 45°28' E 012°14'10 0.5
2018-Jul-04 12:43N 45°20' E 012°22'0 0.2
2018-Jul-04 11:51N 45°20' E 012°22'0 0.0
2018-Jul-04 11:27N 45°20' E 012°22'0 0.1
2018-Jul-04 10:33N 45°20' E 012°23'2 3.8
2018-Jul-04 10:07N 45°19' E 012°24'1 6.8
2018-Jul-04 09:59N 45°19' E 012°26'5 7.9
2018-Jul-04 09:19N 45°17' E 012°32'3 7.9
2018-Jul-04 09:00N 45°15' E 012°35'6 7.8
2018-Jul-04 08:16N 45°11' E 012°41'2 7.8
2018-Jul-04 08:00N 45°10' E 012°44'4 7.6
2018-Jul-04 07:30N 45°08' E 012°48'3 7.1
2018-Jul-04 07:01N 45°05' E 012°51'4 7.1
2018-Jul-04 06:30N 45°02' E 012°52'29 7.2
2018-Jul-04 02:33N 44°35' E 013°07'0 7.1
2018-Jul-04 02:30N 44°35' E 013°07'4 7.1
2018-Jul-04 02:00N 44°32' E 013°09'3 7.0
2018-Jul-04 01:31N 44°28' E 013°10'4 7.1
2018-Jul-04 01:00N 44°25' E 013°12'38 7.4
2018-Jul-03 19:51N 43°59' E 013°50'3 7.6
2018-Jul-03 19:30N 43°57' E 013°53'  
Track history (hours):
 
Tides and Currents Weather Stations Pressure Air Temp Water Temp Dewpoint Dewpoint Depression Visibility Wind Speed Wind Dir Waves Ship Positions

Avalon

Last reported at 2018-Jul-10 17:01 UTC. Time now 2018-Aug-15 02:58 UTC.
Position N 39°57' E 026°00'.
Warning: this ship's position is 35 days out of date.

Length 109 m; draft 2.4 m.

Type: Cargo ship. MMSI: 511460000.

Date/timePositionNaut miles runAvg speedWind from/ knotsBaromVisibWave heightAir tempDewpointWater temp
2018-Jul-10 17:01N 39°57' E 026°00'0 6.4
2018-Jul-10 16:58N 39°57' E 025°60'3 6.5
2018-Jul-10 16:30N 39°55' E 025°57'3 6.7
2018-Jul-10 16:00N 39°52' E 025°55'169 7.0
2018-Jul-09 15:57N 37°37' E 023°45'3 7.2
2018-Jul-09 15:30N 37°40' E 023°43'4 7.2
2018-Jul-09 15:00N 37°43' E 023°41'4 7.3
2018-Jul-09 14:30N 37°46' E 023°38'4 7.3
2018-Jul-09 14:00N 37°48' E 023°35'4 7.4
2018-Jul-09 13:30N 37°50' E 023°31'4 7.7
2018-Jul-09 13:00N 37°51' E 023°26'4 8.0
2018-Jul-09 12:30N 37°51' E 023°21'4 7.9
2018-Jul-09 12:00N 37°52' E 023°16'4 7.9
2018-Jul-09 11:30N 37°53' E 023°11'4 7.7
2018-Jul-09 11:00N 37°53' E 023°07'4 7.3
2018-Jul-09 10:30N 37°54' E 023°02'4 5.6
2018-Jul-09 09:47N 37°57' E 022°58'2 6.1
2018-Jul-09 09:30N 37°58' E 022°56'2 4.5
2018-Jul-09 09:00N 37°59' E 022°54'4 7.9
2018-Jul-09 08:30N 38°01' E 022°50'4 7.8
2018-Jul-09 08:00N 38°03' E 022°46'4 7.3
2018-Jul-09 07:30N 38°05' E 022°42'  
2018-Jul-06 00:50N 44°15' E 013°10'3 7.9
2018-Jul-06 00:30N 44°18' E 013°09'4 8.0
2018-Jul-06 00:00N 44°22' E 013°08'4 8.0
2018-Jul-05 23:30N 44°25' E 013°06'4 8.2
2018-Jul-05 22:59N 44°30' E 013°04'4 8.2
2018-Jul-05 22:30N 44°33' E 013°03'4 8.3
2018-Jul-05 22:00N 44°37' E 013°01'4 8.1
2018-Jul-05 21:30N 44°41' E 012°58'4 8.1
2018-Jul-05 21:00N 44°45' E 012°56'4 7.6
2018-Jul-05 20:30N 44°48' E 012°54'4 7.3
2018-Jul-05 20:00N 44°52' E 012°52'4 7.5
2018-Jul-05 19:30N 44°55' E 012°50'4 7.7
2018-Jul-05 19:00N 44°58' E 012°47'4 7.5
2018-Jul-05 18:30N 45°02' E 012°44'4 7.3
2018-Jul-05 17:59N 45°05' E 012°42'3 7.0
2018-Jul-05 17:30N 45°07' E 012°39'3 6.7
2018-Jul-05 17:00N 45°10' E 012°35'4 7.4
2018-Jul-05 16:28N 45°12' E 012°31'3 7.0
2018-Jul-05 16:00N 45°15' E 012°29'4 7.6
2018-Jul-05 15:30N 45°18' E 012°25'4 7.0
2018-Jul-05 15:00N 45°20' E 012°21'4 7.4
2018-Jul-05 14:26N 45°21' E 012°16'6 6.6
2018-Jul-05 13:30N 45°27' E 012°16'1 1.6
2018-Jul-05 12:45N 45°28' E 012°14'0 0.0
2018-Jul-05 12:27N 45°28' E 012°14'0 0.0
2018-Jul-05 10:51N 45°28' E 012°14'0 0.0
2018-Jul-05 10:30N 45°28' E 012°14'0 0.0
2018-Jul-05 09:57N 45°28' E 012°14'0 0.0
2018-Jul-05 09:24N 45°28' E 012°14'0 0.0
2018-Jul-05 08:51N 45°28' E 012°14'0 0.0
2018-Jul-05 08:27N 45°28' E 012°14'0 0.0
2018-Jul-05 07:57N 45°28' E 012°14'10 0.5
2018-Jul-04 12:43N 45°20' E 012°22'0 0.2
2018-Jul-04 11:51N 45°20' E 012°22'0 0.0
2018-Jul-04 11:27N 45°20' E 012°22'0 0.1
2018-Jul-04 10:33N 45°20' E 012°23'2 3.8
2018-Jul-04 10:07N 45°19' E 012°24'1 6.8
2018-Jul-04 09:59N 45°19' E 012°26'5 7.9
2018-Jul-04 09:19N 45°17' E 012°32'3 7.9
2018-Jul-04 09:00N 45°15' E 012°35'6 7.8
2018-Jul-04 08:16N 45°11' E 012°41'2 7.8
2018-Jul-04 08:00N 45°10' E 012°44'4 7.6
2018-Jul-04 07:30N 45°08' E 012°48'3 7.1
2018-Jul-04 07:01N 45°05' E 012°51'4 7.1
2018-Jul-04 06:30N 45°02' E 012°52'29 7.2
2018-Jul-04 02:33N 44°35' E 013°07'0 7.1
2018-Jul-04 02:30N 44°35' E 013°07'4 7.1
2018-Jul-04 02:00N 44°32' E 013°09'3 7.0
2018-Jul-04 01:31N 44°28' E 013°10'4 7.1
2018-Jul-04 01:00N 44°25' E 013°12'38 7.4
2018-Jul-03 19:51N 43°59' E 013°50'3 7.6
2018-Jul-03 19:30N 43°57' E 013°53'  

Dump ship's entire track history